Time;durP1;ratioP1;P1;durP2;ratioP2;P2;SDS_P1;SDS_P2;PMS_P1;PMS_P2;Temp;Humidity;BMP_temperature;BMP_pressure;BME280_temperature;BME280_humidity;BME280_pressure;Samples;Min_cycle;Max_cycle;Signal;HPM_P1;HPM_P2
2023/09/05 00:01:35;;;;;;;8.32;5.40;;;;;;;;;;5108679;28;20473;-61
2023/09/05 00:04:01;;;;;;;6.97;5.90;;;;;;;;;;5093728;28;20021;-61
2023/09/05 00:06:27;;;;;;;6.68;5.97;;;;;;;;;;5093454;28;20027;-61
2023/09/05 00:08:53;;;;;;;7.43;5.82;;;;;;;;;;5112835;27;20028;-60
2023/09/05 00:11:19;;;;;;;8.70;5.80;;;;;;;;;;5111902;28;20031;-61
2023/09/05 00:13:45;;;;;;;7.32;5.75;;;;;;;;;;5094079;28;20035;-60
2023/09/05 00:16:11;;;;;;;5.72;5.22;;;;;;;;;;5111783;28;20055;-60
2023/09/05 00:18:37;;;;;;;5.68;4.70;;;;;;;;;;5104445;28;20027;-61
2023/09/05 00:21:03;;;;;;;6.85;5.10;;;;;;;;;;5099319;27;20176;-60
2023/09/05 00:23:29;;;;;;;5.55;4.40;;;;;;;;;;5107203;27;20556;-61
2023/09/05 00:25:55;;;;;;;9.13;4.82;;;;;;;;;;5090901;28;20024;-61
2023/09/05 00:28:22;;;;;;;5.85;4.30;;;;;;;;;;5094364;28;20387;-62
2023/09/05 00:30:48;;;;;;;5.22;4.32;;;;;;;;;;5100395;27;20019;-61
2023/09/05 00:33:14;;;;;;;4.53;4.13;;;;;;;;;;5086592;28;20028;-60
2023/09/05 00:35:40;;;;;;;5.35;4.30;;;;;;;;;;5089154;28;20475;-61
2023/09/05 00:38:06;;;;;;;8.82;4.30;;;;;;;;;;5102991;28;20028;-60
2023/09/05 00:40:32;;;;;;;7.05;4.10;;;;;;;;;;5107657;27;20028;-60
2023/09/05 00:42:58;;;;;;;5.57;3.63;;;;;;;;;;5109999;28;20035;-60
2023/09/05 00:45:24;;;;;;;4.00;3.63;;;;;;;;;;5101499;28;20019;-60
2023/09/05 00:47:50;;;;;;;9.00;4.50;;;;;;;;;;5096002;28;20052;-60
2023/09/05 00:50:18;;;;;;;5.28;4.28;;;;;;;;;;5100089;28;20021;-60
2023/09/05 00:52:45;;;;;;;4.63;3.58;;;;;;;;;;5100047;27;20081;-60
2023/09/05 00:55:12;;;;;;;8.13;3.67;;;;;;;;;;5093179;28;20020;-61
2023/09/05 00:57:38;;;;;;;6.38;3.58;;;;;;;;;;5104836;28;20401;-60
2023/09/05 01:00:09;;;;;;;3.80;3.50;;;;;;;;;;5106397;28;20047;-60
2023/09/05 01:02:35;;;;;;;3.40;3.10;;;;;;;;;;5109865;28;20449;-60
2023/09/05 01:05:02;;;;;;;3.60;3.30;;;;;;;;;;5103732;28;20085;-60
2023/09/05 01:07:28;;;;;;;4.00;3.55;;;;;;;;;;5104639;28;20578;-60
2023/09/05 01:09:54;;;;;;;4.40;3.63;;;;;;;;;;5097155;28;20057;-60
2023/09/05 01:12:20;;;;;;;4.75;3.10;;;;;;;;;;5093902;28;20458;-60
2023/09/05 01:14:46;;;;;;;7.05;3.47;;;;;;;;;;5104678;28;20024;-60
2023/09/05 01:17:12;;;;;;;5.72;3.40;;;;;;;;;;5095459;28;20028;-60
2023/09/05 01:19:39;;;;;;;3.85;3.10;;;;;;;;;;5095630;28;20059;-61
2023/09/05 01:22:16;;;;;;;3.95;3.33;;;;;;;;;;5107315;28;20020;-61
2023/09/05 01:24:42;;;;;;;3.63;3.30;;;;;;;;;;5105105;28;20530;-60
2023/09/05 01:27:09;;;;;;;3.92;3.28;;;;;;;;;;5109695;28;20076;-60
2023/09/05 01:29:38;;;;;;;4.05;3.58;;;;;;;;;;5104711;28;20047;-61
2023/09/05 01:32:04;;;;;;;5.05;3.22;;;;;;;;;;5108501;28;20462;-60
2023/09/05 01:34:31;;;;;;;3.50;3.10;;;;;;;;;;5105531;27;20426;-61
2023/09/05 01:36:57;;;;;;;4.70;3.20;;;;;;;;;;5114755;27;20023;-60
2023/09/05 01:39:23;;;;;;;3.78;3.47;;;;;;;;;;5100869;27;20051;-60
2023/09/05 01:41:49;;;;;;;4.10;3.25;;;;;;;;;;5100279;27;20104;-60
2023/09/05 01:44:16;;;;;;;4.57;3.60;;;;;;;;;;5096739;28;20028;-60
2023/09/05 01:46:42;;;;;;;4.40;3.25;;;;;;;;;;5104068;27;20052;-60
2023/09/05 01:49:08;;;;;;;3.50;2.95;;;;;;;;;;5095998;28;20028;-60
2023/09/05 01:51:34;;;;;;;3.90;3.50;;;;;;;;;;5116321;27;20035;-60
2023/09/05 01:54:00;;;;;;;4.18;3.13;;;;;;;;;;5099379;28;20023;-60
2023/09/05 01:56:26;;;;;;;4.32;3.00;;;;;;;;;;5098053;28;20354;-60
2023/09/05 01:58:52;;;;;;;5.00;3.00;;;;;;;;;;5100066;28;20031;-60
2023/09/05 02:01:18;;;;;;;3.55;2.83;;;;;;;;;;5111195;28;20031;-60
2023/09/05 02:03:45;;;;;;;4.80;3.03;;;;;;;;;;5108425;28;20055;-60
2023/09/05 02:06:13;;;;;;;3.83;3.38;;;;;;;;;;5102225;28;20553;-60
2023/09/05 02:08:39;;;;;;;4.88;3.28;;;;;;;;;;5100137;28;20028;-60
2023/09/05 02:11:05;;;;;;;6.43;3.10;;;;;;;;;;5114407;27;20028;-60
2023/09/05 02:13:31;;;;;;;2.88;2.58;;;;;;;;;;5097635;28;20036;-60
2023/09/05 02:15:57;;;;;;;4.57;3.17;;;;;;;;;;5095824;28;20551;-60
2023/09/05 02:18:23;;;;;;;4.00;2.92;;;;;;;;;;5096624;28;20020;-60
2023/09/05 02:21:04;;;;;;;4.70;3.05;;;;;;;;;;5108386;27;20062;-60
2023/09/05 02:23:30;;;;;;;4.95;3.45;;;;;;;;;;5095743;28;20032;-60
2023/09/05 02:25:57;;;;;;;2.83;2.55;;;;;;;;;;5102445;27;20016;-60
2023/09/05 02:28:23;;;;;;;4.03;2.90;;;;;;;;;;5099352;27;20032;-60
2023/09/05 02:30:50;;;;;;;2.95;2.67;;;;;;;;;;5108555;27;20028;-60
2023/09/05 02:33:16;;;;;;;5.22;2.88;;;;;;;;;;5110529;28;20102;-60
2023/09/05 02:35:42;;;;;;;4.25;3.10;;;;;;;;;;5099679;27;20508;-60
2023/09/05 02:38:30;;;;;;;3.58;2.85;;;;;;;;;;5101813;28;20121;-60
2023/09/05 02:40:56;;;;;;;6.57;3.20;;;;;;;;;;5109655;27;20035;-60
2023/09/05 02:43:22;;;;;;;4.70;2.88;;;;;;;;;;5129884;27;20095;-60
2023/09/05 02:45:52;;;;;;;5.07;2.97;;;;;;;;;;5114737;28;20173;-60
2023/09/05 02:48:18;;;;;;;4.60;2.90;;;;;;;;;;5115609;27;20401;-60
2023/09/05 02:50:44;;;;;;;5.25;2.83;;;;;;;;;;5116031;27;20068;-60
2023/09/05 02:53:10;;;;;;;3.08;2.78;;;;;;;;;;5114731;28;20032;-60
2023/09/05 02:55:42;;;;;;;4.10;2.95;;;;;;;;;;5115045;28;20023;-60
2023/09/05 02:58:08;;;;;;;2.63;2.42;;;;;;;;;;5113398;27;20392;-60
2023/09/05 03:00:35;;;;;;;3.78;2.58;;;;;;;;;;5111253;27;20027;-60
2023/09/05 03:03:01;;;;;;;3.15;2.67;;;;;;;;;;5112982;27;20047;-60
2023/09/05 03:05:27;;;;;;;4.82;2.97;;;;;;;;;;5098904;28;20030;-60
2023/09/05 03:07:55;;;;;;;4.03;2.40;;;;;;;;;;5102458;27;20071;-60
2023/09/05 03:10:21;;;;;;;2.88;2.67;;;;;;;;;;5111981;27;20019;-60
2023/09/05 03:12:47;;;;;;;3.08;2.65;;;;;;;;;;5094897;28;20480;-60
2023/09/05 03:15:18;;;;;;;4.22;2.50;;;;;;;;;;5114910;28;20030;-60
2023/09/05 03:17:45;;;;;;;3.80;2.35;;;;;;;;;;5113086;28;20019;-60
2023/09/05 03:20:12;;;;;;;5.55;2.75;;;;;;;;;;5101604;27;20468;-60
2023/09/05 03:22:37;;;;;;;2.78;2.47;;;;;;;;;;5094591;28;20023;-60
2023/09/05 03:25:04;;;;;;;3.72;2.78;;;;;;;;;;5108923;27;20027;-60
2023/09/05 03:27:30;;;;;;;4.13;2.55;;;;;;;;;;5093119;28;20038;-60
2023/09/05 03:29:56;;;;;;;2.70;2.40;;;;;;;;;;5107526;27;20490;-60
2023/09/05 03:32:22;;;;;;;5.18;2.63;;;;;;;;;;5107926;28;20020;-60
2023/09/05 03:34:48;;;;;;;2.95;2.65;;;;;;;;;;5094638;28;20032;-60
2023/09/05 03:37:15;;;;;;;3.03;2.65;;;;;;;;;;5116378;27;20350;-60
2023/09/05 03:39:42;;;;;;;3.58;2.28;;;;;;;;;;5106549;28;20043;-60
2023/09/05 03:42:08;;;;;;;6.55;2.88;;;;;;;;;;5108045;27;20047;-60
2023/09/05 03:44:34;;;;;;;6.05;2.50;;;;;;;;;;5104642;28;20497;-60
2023/09/05 03:47:00;;;;;;;3.70;2.40;;;;;;;;;;5102796;27;20036;-60
2023/09/05 03:49:26;;;;;;;3.85;2.60;;;;;;;;;;5104243;28;20508;-60
2023/09/05 03:51:56;;;;;;;3.92;2.67;;;;;;;;;;5093356;28;20550;-60
2023/09/05 03:54:23;;;;;;;4.30;2.65;;;;;;;;;;5114291;28;20072;-60
2023/09/05 03:56:49;;;;;;;3.45;2.65;;;;;;;;;;5116223;27;20068;-60
2023/09/05 03:59:15;;;;;;;2.70;2.45;;;;;;;;;;5110712;27;20034;-60
2023/09/05 04:01:41;;;;;;;2.20;1.95;;;;;;;;;;5095880;28;20028;-60
2023/09/05 04:04:10;;;;;;;4.05;2.20;;;;;;;;;;5104240;27;20082;-60
2023/09/05 04:06:37;;;;;;;5.38;2.67;;;;;;;;;;5121679;27;20064;-60
2023/09/05 04:09:03;;;;;;;3.35;2.15;;;;;;;;;;5110376;27;20062;-60
2023/09/05 04:11:29;;;;;;;2.40;2.10;;;;;;;;;;5109549;28;20557;-59
2023/09/05 04:13:55;;;;;;;5.38;2.85;;;;;;;;;;5110350;27;20028;-59
2023/09/05 04:16:21;;;;;;;5.30;2.53;;;;;;;;;;5107168;27;20032;-59
2023/09/05 04:18:47;;;;;;;3.63;2.28;;;;;;;;;;5102626;28;20024;-59
2023/09/05 04:21:13;;;;;;;6.57;2.50;;;;;;;;;;5108377;27;20534;-60
2023/09/05 04:23:39;;;;;;;2.92;2.58;;;;;;;;;;5107828;27;20028;-60
2023/09/05 04:26:05;;;;;;;4.25;2.95;;;;;;;;;;5102984;27;20031;-60
2023/09/05 04:28:31;;;;;;;2.67;2.40;;;;;;;;;;5103692;27;20031;-59
2023/09/05 04:31:04;;;;;;;3.30;2.20;;;;;;;;;;5091139;28;20020;-59
2023/09/05 04:33:37;;;;;;;4.97;2.88;;;;;;;;;;5094699;28;20020;-59
2023/09/05 04:36:12;;;;;;;5.47;2.47;;;;;;;;;;5105047;27;20384;-59
2023/09/05 04:38:38;;;;;;;2.72;2.13;;;;;;;;;;5099744;28;20380;-60
2023/09/05 04:41:06;;;;;;;6.75;2.50;;;;;;;;;;5093272;28;20024;-60
2023/09/05 04:43:32;;;;;;;4.53;2.70;;;;;;;;;;5106973;28;20019;-60
2023/09/05 04:45:58;;;;;;;4.70;2.05;;;;;;;;;;5104209;28;20111;-60
2023/09/05 04:48:25;;;;;;;7.78;2.88;;;;;;;;;;5105878;28;20055;-59
2023/09/05 04:50:51;;;;;;;4.93;2.20;;;;;;;;;;5094829;28;20027;-60
2023/09/05 04:53:17;;;;;;;6.30;2.67;;;;;;;;;;5105852;28;20093;-60
2023/09/05 04:55:43;;;;;;;4.93;2.55;;;;;;;;;;5096410;28;20469;-60
2023/09/05 04:58:09;;;;;;;2.17;1.95;;;;;;;;;;5102923;28;20031;-59
2023/09/05 05:00:35;;;;;;;4.53;2.40;;;;;;;;;;5111869;28;20023;-60
2023/09/05 05:03:01;;;;;;;2.92;2.50;;;;;;;;;;5106022;28;20034;-60
2023/09/05 05:05:27;;;;;;;4.65;2.33;;;;;;;;;;5094269;28;20474;-60
2023/09/05 05:07:53;;;;;;;3.40;2.15;;;;;;;;;;5109969;28;20070;-60
2023/09/05 05:10:20;;;;;;;4.10;2.67;;;;;;;;;;5111843;27;20028;-60
2023/09/05 05:12:46;;;;;;;2.72;2.38;;;;;;;;;;5100002;28;20470;-60
2023/09/05 05:15:12;;;;;;;4.22;2.53;;;;;;;;;;5107814;28;20020;-59
2023/09/05 05:17:39;;;;;;;3.90;2.50;;;;;;;;;;5093282;28;20529;-60
2023/09/05 05:20:05;;;;;;;4.35;2.65;;;;;;;;;;5094646;28;20020;-59
2023/09/05 05:22:32;;;;;;;4.43;2.40;;;;;;;;;;5104090;28;20028;-59
2023/09/05 05:24:58;;;;;;;6.30;2.60;;;;;;;;;;5114453;27;20028;-59
2023/09/05 05:27:24;;;;;;;6.28;2.63;;;;;;;;;;5108630;27;20034;-59
2023/09/05 05:29:50;;;;;;;3.63;2.38;;;;;;;;;;5112849;27;20039;-59
2023/09/05 05:32:16;;;;;;;4.10;2.92;;;;;;;;;;5115212;27;20034;-59
2023/09/05 05:34:42;;;;;;;4.65;2.90;;;;;;;;;;5106731;28;20334;-59
2023/09/05 05:37:08;;;;;;;4.72;3.00;;;;;;;;;;5114657;27;20452;-59
2023/09/05 05:39:34;;;;;;;5.63;3.30;;;;;;;;;;5099345;27;20032;-59
2023/09/05 05:42:00;;;;;;;5.35;3.25;;;;;;;;;;5112083;27;20023;-59
2023/09/05 05:44:26;;;;;;;5.13;3.28;;;;;;;;;;5125648;27;20556;-59
2023/09/05 05:46:56;;;;;;;4.30;3.88;;;;;;;;;;5111249;28;20581;-60
2023/09/05 05:49:23;;;;;;;6.65;4.40;;;;;;;;;;5107464;28;20040;-59
2023/09/05 05:51:50;;;;;;;5.47;3.60;;;;;;;;;;5095349;28;20131;-60
2023/09/05 05:54:16;;;;;;;6.60;4.07;;;;;;;;;;5112320;27;20047;-59
2023/09/05 05:56:42;;;;;;;6.20;3.47;;;;;;;;;;5100758;27;20011;-60
2023/09/05 05:59:08;;;;;;;5.82;3.10;;;;;;;;;;5113429;27;20390;-59
2023/09/05 06:01:35;;;;;;;5.40;2.70;;;;;;;;;;5090698;28;20031;-60
2023/09/05 06:04:01;;;;;;;5.90;2.92;;;;;;;;;;5106471;27;20050;-60
2023/09/05 06:06:27;;;;;;;7.07;2.85;;;;;;;;;;5096198;28;20048;-60
2023/09/05 06:08:53;;;;;;;3.70;2.60;;;;;;;;;;5096946;28;20040;-59
2023/09/05 06:11:19;;;;;;;4.38;2.30;;;;;;;;;;5107961;27;20039;-59
2023/09/05 06:13:45;;;;;;;5.68;2.60;;;;;;;;;;5112852;28;20555;-59
2023/09/05 06:16:11;;;;;;;3.53;2.20;;;;;;;;;;5102295;27;20028;-59
2023/09/05 06:18:37;;;;;;;4.90;2.13;;;;;;;;;;5104531;27;20112;-59
2023/09/05 06:21:03;;;;;;;4.15;2.83;;;;;;;;;;5115868;27;20656;-60
2023/09/05 06:23:30;;;;;;;4.07;2.58;;;;;;;;;;5112074;27;20217;-59
2023/09/05 06:25:56;;;;;;;3.80;2.88;;;;;;;;;;5110929;28;20031;-59
2023/09/05 06:28:22;;;;;;;8.23;3.15;;;;;;;;;;5098768;27;20032;-59
2023/09/05 06:30:48;;;;;;;6.63;2.90;;;;;;;;;;5110302;27;20080;-59
2023/09/05 06:33:14;;;;;;;4.15;3.38;;;;;;;;;;5099612;27;20032;-60
2023/09/05 06:35:40;;;;;;;6.43;3.05;;;;;;;;;;5113386;27;20042;-60
2023/09/05 06:38:07;;;;;;;7.90;3.40;;;;;;;;;;5096464;27;20473;-59
2023/09/05 06:40:33;;;;;;;3.10;2.42;;;;;;;;;;5117661;27;20096;-59
2023/09/05 06:42:59;;;;;;;6.32;3.05;;;;;;;;;;5113047;27;20473;-60
2023/09/05 06:45:26;;;;;;;3.10;2.80;;;;;;;;;;5106270;28;20514;-59
2023/09/05 06:47:52;;;;;;;7.05;3.42;;;;;;;;;;5108973;27;20050;-60
2023/09/05 06:50:18;;;;;;;4.97;3.10;;;;;;;;;;5112680;27;20035;-59
2023/09/05 06:52:44;;;;;;;4.43;2.67;;;;;;;;;;5110324;27;20020;-59
2023/09/05 06:55:12;;;;;;;8.25;3.45;;;;;;;;;;5115908;27;20068;-66
2023/09/05 06:57:38;;;;;;;4.07;3.55;;;;;;;;;;5098684;28;20024;-65
2023/09/05 07:00:04;;;;;;;5.95;3.03;;;;;;;;;;5106214;27;20031;-62
2023/09/05 07:02:30;;;;;;;7.40;3.33;;;;;;;;;;5102469;27;20486;-67
2023/09/05 07:04:56;;;;;;;5.68;2.80;;;;;;;;;;5107691;27;20039;-66
2023/09/05 07:07:22;;;;;;;3.33;2.97;;;;;;;;;;5110714;27;20031;-64
2023/09/05 07:09:48;;;;;;;4.47;2.97;;;;;;;;;;5105335;27;20125;-63
2023/09/05 07:12:14;;;;;;;5.75;3.13;;;;;;;;;;5095779;28;20023;-63
2023/09/05 07:14:42;;;;;;;5.10;2.95;;;;;;;;;;5113468;27;20445;-62
2023/09/05 07:17:08;;;;;;;6.30;2.90;;;;;;;;;;5111633;27;20065;-64
2023/09/05 07:19:36;;;;;;;5.75;3.47;;;;;;;;;;5129826;27;20069;-64
2023/09/05 07:22:02;;;;;;;5.53;2.92;;;;;;;;;;5116235;27;20068;-62
2023/09/05 07:24:28;;;;;;;6.93;3.60;;;;;;;;;;5103136;27;20044;-60
2023/09/05 07:26:54;;;;;;;8.80;3.63;;;;;;;;;;5103252;27;20073;-65
2023/09/05 07:29:20;;;;;;;5.50;3.58;;;;;;;;;;5100087;27;20044;-68
2023/09/05 07:31:47;;;;;;;8.15;3.30;;;;;;;;;;5111672;27;20011;-64
2023/09/05 07:34:13;;;;;;;4.18;3.10;;;;;;;;;;5112932;28;20470;-63
2023/09/05 07:36:40;;;;;;;12.32;3.80;;;;;;;;;;5104607;27;20477;-63
2023/09/05 07:39:06;;;;;;;8.40;3.38;;;;;;;;;;5107876;27;20042;-59
2023/09/05 07:41:32;;;;;;;6.38;3.38;;;;;;;;;;5084944;28;20024;-62
2023/09/05 07:43:58;;;;;;;7.65;3.47;;;;;;;;;;5116378;27;20102;-64
2023/09/05 07:46:24;;;;;;;8.30;3.35;;;;;;;;;;5116675;27;20043;-65
2023/09/05 07:48:52;;;;;;;6.13;3.55;;;;;;;;;;5114474;27;20039;-63
2023/09/05 07:51:22;;;;;;;6.90;3.10;;;;;;;;;;5125215;27;20476;-63
2023/09/05 07:53:49;;;;;;;7.30;4.63;;;;;;;;;;5112118;27;20034;-61
2023/09/05 07:56:15;;;;;;;5.40;3.65;;;;;;;;;;5099928;27;20041;-66
2023/09/05 07:58:41;;;;;;;4.72;3.85;;;;;;;;;;5119955;27;20539;-75
2023/09/05 08:01:09;;;;;;;8.32;4.20;;;;;;;;;;5105692;27;20024;-79
2023/09/05 08:03:36;;;;;;;8.45;3.65;;;;;;;;;;5113012;27;20035;-70
2023/09/05 08:06:03;;;;;;;7.82;4.00;;;;;;;;;;5110639;28;20031;-68
2023/09/05 08:08:29;;;;;;;5.65;3.67;;;;;;;;;;5097053;27;20392;-60
2023/09/05 08:10:55;;;;;;;6.93;4.25;;;;;;;;;;5112526;27;20058;-72
2023/09/05 08:13:21;;;;;;;6.97;4.05;;;;;;;;;;5116342;27;20023;-73
2023/09/05 08:15:47;;;;;;;7.93;4.15;;;;;;;;;;5101017;28;20372;-61
2023/09/05 08:18:14;;;;;;;5.93;3.83;;;;;;;;;;5106173;27;20388;-62
2023/09/05 08:20:42;;;;;;;8.20;4.20;;;;;;;;;;5108301;28;20122;-62
2023/09/05 08:23:09;;;;;;;6.68;4.07;;;;;;;;;;5104774;27;20495;-62
2023/09/05 08:25:35;;;;;;;7.97;4.28;;;;;;;;;;5099978;28;20035;-62
2023/09/05 08:28:01;;;;;;;8.10;3.97;;;;;;;;;;5108306;27;20474;-48
2023/09/05 08:30:28;;;;;;;10.32;4.65;;;;;;;;;;5114130;27;20059;-59
2023/09/05 08:32:57;;;;;;;5.20;4.10;;;;;;;;;;5096459;28;20478;-65
2023/09/05 08:35:24;;;;;;;7.68;4.38;;;;;;;;;;5093423;28;20024;-63
2023/09/05 08:37:50;;;;;;;7.65;4.68;;;;;;;;;;5098578;28;20027;-62
2023/09/05 08:40:16;;;;;;;7.32;4.03;;;;;;;;;;5095004;28;20042;-61
2023/09/05 08:42:42;;;;;;;7.40;4.40;;;;;;;;;;5102941;28;20469;-62
2023/09/05 08:45:12;;;;;;;8.68;3.92;;;;;;;;;;5106228;28;20030;-66
2023/09/05 08:47:38;;;;;;;10.43;5.18;;;;;;;;;;5114922;27;20493;-59
2023/09/05 08:50:06;;;;;;;9.93;4.75;;;;;;;;;;5112698;28;20027;-68
2023/09/05 08:52:33;;;;;;;10.27;4.45;;;;;;;;;;5125093;27;20102;-62
2023/09/05 08:55:02;;;;;;;9.07;6.32;;;;;;;;;;5100988;28;20031;-63
2023/09/05 08:57:28;;;;;;;9.27;5.93;;;;;;;;;;5102280;28;20072;-62
2023/09/05 08:59:55;;;;;;;6.55;4.43;;;;;;;;;;5114859;28;20431;-66
2023/09/05 09:02:21;;;;;;;7.35;4.30;;;;;;;;;;5120593;28;20027;-60
2023/09/05 09:04:53;;;;;;;7.00;4.30;;;;;;;;;;5121613;28;20029;-62
2023/09/05 09:07:19;;;;;;;9.23;4.85;;;;;;;;;;5112181;28;20110;-61
2023/09/05 09:09:46;;;;;;;7.20;4.10;;;;;;;;;;5113681;28;20125;-70
2023/09/05 09:12:12;;;;;;;9.05;4.13;;;;;;;;;;5106900;28;20374;-67
2023/09/05 09:14:38;;;;;;;7.43;3.58;;;;;;;;;;5111487;28;20031;-56
2023/09/05 09:17:05;;;;;;;8.25;3.75;;;;;;;;;;5102820;28;20446;-55
2023/09/05 09:19:32;;;;;;;6.97;3.85;;;;;;;;;;5096322;28;20028;-63
2023/09/05 09:22:02;;;;;;;8.63;3.83;;;;;;;;;;5104398;28;20028;-68
2023/09/05 09:24:32;;;;;;;7.63;4.20;;;;;;;;;;5112183;28;20118;-66
2023/09/05 09:26:58;;;;;;;7.05;4.00;;;;;;;;;;5108843;28;20047;-64
2023/09/05 09:29:24;;;;;;;7.90;4.15;;;;;;;;;;5110850;28;20198;-62
2023/09/05 09:31:58;;;;;;;4.18;3.78;;;;;;;;;;5115245;28;20031;-69
2023/09/05 09:34:24;;;;;;;6.63;3.38;;;;;;;;;;5108920;28;20060;-63
2023/09/05 09:36:53;;;;;;;6.30;3.72;;;;;;;;;;5108008;28;20126;-66
2023/09/05 09:39:19;;;;;;;7.35;3.75;;;;;;;;;;5109833;28;20069;-64
2023/09/05 09:41:49;;;;;;;3.40;2.95;;;;;;;;;;5103912;28;20047;-61
2023/09/05 09:44:28;;;;;;;6.10;4.10;;;;;;;;;;5089844;28;20020;-67
2023/09/05 09:46:55;;;;;;;6.35;3.72;;;;;;;;;;5113535;28;20080;-62
2023/09/05 09:49:21;;;;;;;6.53;2.72;;;;;;;;;;5110182;28;20400;-60
2023/09/05 09:51:53;;;;;;;5.38;3.78;;;;;;;;;;5110085;28;20055;-60
2023/09/05 09:54:22;;;;;;;6.50;3.55;;;;;;;;;;5112780;28;20114;-53
2023/09/05 09:56:48;;;;;;;5.28;4.18;;;;;;;;;;5114561;28;20030;-67
2023/09/05 09:59:18;;;;;;;6.75;3.65;;;;;;;;;;5114315;27;20028;-61
2023/09/05 10:01:44;;;;;;;8.05;3.70;;;;;;;;;;5112077;27;20482;-62
2023/09/05 10:04:10;;;;;;;9.13;3.83;;;;;;;;;;5114048;27;20073;-60
2023/09/05 10:06:36;;;;;;;6.63;3.22;;;;;;;;;;5097032;28;20122;-61
2023/09/05 10:09:03;;;;;;;4.57;3.47;;;;;;;;;;5111000;27;20073;-59
2023/09/05 10:11:29;;;;;;;7.38;4.07;;;;;;;;;;5116526;27;20108;-60
2023/09/05 10:13:56;;;;;;;6.68;3.85;;;;;;;;;;5111712;27;20030;-61
2023/09/05 10:16:23;;;;;;;4.55;3.55;;;;;;;;;;5113014;27;20081;-63
2023/09/05 10:18:49;;;;;;;8.63;3.88;;;;;;;;;;5116403;27;20464;-59
2023/09/05 10:21:16;;;;;;;5.65;3.45;;;;;;;;;;5097513;27;20055;-58
2023/09/05 10:23:42;;;;;;;6.90;3.85;;;;;;;;;;5122627;27;20031;-65
2023/09/05 10:26:09;;;;;;;6.70;3.80;;;;;;;;;;5121958;27;20043;-58
2023/09/05 10:28:36;;;;;;;7.88;4.28;;;;;;;;;;5106071;27;20119;-59
2023/09/05 10:31:07;;;;;;;8.38;3.05;;;;;;;;;;5097856;28;20023;-62
2023/09/05 10:33:34;;;;;;;4.88;3.03;;;;;;;;;;5111999;28;20066;-54
2023/09/05 10:36:00;;;;;;;3.83;3.47;;;;;;;;;;5104868;27;20028;-56
2023/09/05 10:38:28;;;;;;;6.38;3.22;;;;;;;;;;5098558;28;20020;-55
2023/09/05 10:40:55;;;;;;;5.50;3.42;;;;;;;;;;5094495;28;20016;-56
2023/09/05 10:43:22;;;;;;;5.35;3.97;;;;;;;;;;5095075;28;20024;-56
2023/09/05 10:45:55;;;;;;;6.18;3.08;;;;;;;;;;5095489;28;20039;-56
2023/09/05 10:48:33;;;;;;;5.70;3.42;;;;;;;;;;5094928;28;20506;-54
2023/09/05 10:51:10;;;;;;;5.50;3.60;;;;;;;;;;5095103;28;20028;-54
2023/09/05 10:53:38;;;;;;;9.10;3.65;;;;;;;;;;5088457;28;20028;-56
2023/09/05 10:56:04;;;;;;;7.30;3.88;;;;;;;;;;5100928;28;20095;-53
2023/09/05 10:58:37;;;;;;;11.07;3.55;;;;;;;;;;5103390;28;20032;-56
2023/09/05 11:01:23;;;;;;;8.23;3.60;;;;;;;;;;5094895;28;20377;-52
2023/09/05 11:03:49;;;;;;;6.43;3.40;;;;;;;;;;5094788;28;20072;-56
2023/09/05 11:06:16;;;;;;;9.15;3.45;;;;;;;;;;5093795;28;20419;-56
2023/09/05 11:08:43;;;;;;;8.48;7.00;;;;;;;;;;5085285;28;20036;-56
2023/09/05 11:11:09;;;;;;;6.32;3.72;;;;;;;;;;5094712;28;20024;-53
2023/09/05 11:13:35;;;;;;;6.20;3.53;;;;;;;;;;5094915;28;20028;-55
2023/09/05 11:16:01;;;;;;;6.43;3.70;;;;;;;;;;5094569;28;20028;-54
2023/09/05 11:18:27;;;;;;;5.82;3.55;;;;;;;;;;5094897;28;20020;-56
2023/09/05 11:20:53;;;;;;;4.35;3.08;;;;;;;;;;5082282;28;20039;-55
2023/09/05 11:23:21;;;;;;;7.10;3.75;;;;;;;;;;5094562;28;20024;-55
2023/09/05 11:25:54;;;;;;;5.97;3.53;;;;;;;;;;5094469;28;20081;-54
2023/09/05 11:28:24;;;;;;;4.22;3.50;;;;;;;;;;5082117;28;20058;-56
2023/09/05 11:30:56;;;;;;;8.88;4.65;;;;;;;;;;5113366;28;20030;-55
2023/09/05 11:33:23;;;;;;;6.43;3.55;;;;;;;;;;5095233;28;20020;-56
2023/09/05 11:35:49;;;;;;;7.57;4.00;;;;;;;;;;5094305;28;20024;-54
2023/09/05 11:38:16;;;;;;;8.32;4.22;;;;;;;;;;5094196;28;20466;-53
2023/09/05 11:40:55;;;;;;;5.38;3.80;;;;;;;;;;5094304;28;20017;-55
2023/09/05 11:43:24;;;;;;;4.65;4.22;;;;;;;;;;5093953;28;20493;-54
2023/09/05 11:45:53;;;;;;;8.10;3.53;;;;;;;;;;5094382;28;20024;-56
2023/09/05 11:48:20;;;;;;;8.80;4.03;;;;;;;;;;5093778;28;20502;-56
2023/09/05 11:50:46;;;;;;;4.63;3.95;;;;;;;;;;5087691;28;20084;-56
2023/09/05 11:53:14;;;;;;;7.30;4.03;;;;;;;;;;5093771;28;20034;-57
2023/09/05 11:55:41;;;;;;;8.35;4.22;;;;;;;;;;5096636;28;20024;-56
2023/09/05 11:58:07;;;;;;;9.40;3.95;;;;;;;;;;5105229;28;20017;-55
2023/09/05 12:00:33;;;;;;;6.00;4.28;;;;;;;;;;5093771;28;20035;-56
2023/09/05 12:03:00;;;;;;;7.72;3.90;;;;;;;;;;5088865;28;20020;-53
2023/09/05 12:05:26;;;;;;;7.43;3.75;;;;;;;;;;5093759;28;20030;-54
2023/09/05 12:07:56;;;;;;;8.40;4.90;;;;;;;;;;5093535;28;20034;-56
2023/09/05 12:10:25;;;;;;;5.68;3.80;;;;;;;;;;5093919;28;20020;-56
2023/09/05 12:12:55;;;;;;;6.47;3.50;;;;;;;;;;5093384;28;20130;-56
2023/09/05 12:15:37;;;;;;;10.07;3.75;;;;;;;;;;5093609;28;20489;-54
2023/09/05 12:18:06;;;;;;;10.98;4.35;;;;;;;;;;5092720;28;20023;-54
2023/09/05 12:20:33;;;;;;;7.82;4.18;;;;;;;;;;5093692;28;20100;-55
2023/09/05 12:22:59;;;;;;;9.45;4.10;;;;;;;;;;5093379;28;20437;-56
2023/09/05 12:25:28;;;;;;;6.85;4.00;;;;;;;;;;5093574;28;20027;-56
2023/09/05 12:27:55;;;;;;;6.43;3.60;;;;;;;;;;5093201;28;20444;-54
2023/09/05 12:30:24;;;;;;;10.88;3.97;;;;;;;;;;5093457;28;20020;-55
2023/09/05 12:32:50;;;;;;;6.13;3.58;;;;;;;;;;5107209;28;20028;-55
2023/09/05 12:35:16;;;;;;;6.28;3.17;;;;;;;;;;5093227;28;20052;-54
2023/09/05 12:37:42;;;;;;;4.20;2.97;;;;;;;;;;5093193;28;20477;-56
2023/09/05 12:40:09;;;;;;;4.07;3.10;;;;;;;;;;5110599;27;20161;-55
2023/09/05 12:42:35;;;;;;;6.05;3.00;;;;;;;;;;5102126;28;20103;-54
2023/09/05 12:45:01;;;;;;;4.03;3.00;;;;;;;;;;5092884;28;20505;-56
2023/09/05 12:47:27;;;;;;;3.97;3.58;;;;;;;;;;5092890;28;20101;-58
2023/09/05 12:49:54;;;;;;;7.82;3.30;;;;;;;;;;5092802;28;20097;-63
2023/09/05 12:52:21;;;;;;;6.47;3.25;;;;;;;;;;5093221;28;20048;-60
2023/09/05 12:54:51;;;;;;;6.15;3.58;;;;;;;;;;5093069;28;20077;-61
2023/09/05 12:57:17;;;;;;;8.32;3.17;;;;;;;;;;5107171;28;20100;-60
2023/09/05 12:59:43;;;;;;;6.85;3.70;;;;;;;;;;5087007;28;20034;-61
2023/09/05 13:02:09;;;;;;;5.85;3.95;;;;;;;;;;5093093;28;20029;-61
2023/09/05 13:04:37;;;;;;;8.60;3.85;;;;;;;;;;5093018;28;20384;-61
2023/09/05 13:07:03;;;;;;;7.30;3.72;;;;;;;;;;5082436;28;20020;-60
2023/09/05 13:09:29;;;;;;;5.47;3.53;;;;;;;;;;5089162;28;20059;-61
2023/09/05 13:11:55;;;;;;;3.60;3.30;;;;;;;;;;5093076;28;20366;-60
2023/09/05 13:14:21;;;;;;;5.13;3.65;;;;;;;;;;5092595;28;20024;-64
2023/09/05 13:16:47;;;;;;;8.93;3.20;;;;;;;;;;5092719;28;20103;-65
2023/09/05 13:19:13;;;;;;;4.53;3.30;;;;;;;;;;5092581;28;20036;-64
2023/09/05 13:21:39;;;;;;;5.32;3.60;;;;;;;;;;5103658;28;20008;-64
2023/09/05 13:24:06;;;;;;;3.55;2.97;;;;;;;;;;5111407;28;20492;-64
2023/09/05 13:26:33;;;;;;;5.25;3.03;;;;;;;;;;5108796;28;20062;-64
2023/09/05 13:28:59;;;;;;;3.60;3.17;;;;;;;;;;5102129;28;20466;-64
2023/09/05 13:31:25;;;;;;;3.67;2.95;;;;;;;;;;5113318;27;20418;-63
2023/09/05 13:33:53;;;;;;;5.28;3.53;;;;;;;;;;5096564;28;20073;-63
2023/09/05 13:36:19;;;;;;;7.35;3.83;;;;;;;;;;5096538;28;20012;-64
2023/09/05 13:38:45;;;;;;;5.18;3.50;;;;;;;;;;5109378;28;20020;-64
2023/09/05 13:41:11;;;;;;;5.78;3.35;;;;;;;;;;5097720;28;20027;-64
2023/09/05 13:43:37;;;;;;;4.25;2.90;;;;;;;;;;5096648;28;20027;-64
2023/09/05 13:46:03;;;;;;;4.88;3.15;;;;;;;;;;5096370;28;20020;-63
2023/09/05 13:48:29;;;;;;;6.65;3.63;;;;;;;;;;5096296;28;20046;-64
2023/09/05 13:50:55;;;;;;;5.82;3.55;;;;;;;;;;5110611;28;20020;-64
2023/09/05 13:53:21;;;;;;;4.55;2.95;;;;;;;;;;5098111;28;20404;-63
2023/09/05 13:55:47;;;;;;;3.38;2.67;;;;;;;;;;5123982;27;20038;-61
2023/09/05 13:58:13;;;;;;;4.03;2.90;;;;;;;;;;5105133;28;20084;-61
2023/09/05 14:00:39;;;;;;;4.70;3.65;;;;;;;;;;5090889;28;20028;-61
2023/09/05 14:03:05;;;;;;;2.97;2.78;;;;;;;;;;5096423;28;20024;-60
2023/09/05 14:05:31;;;;;;;4.18;2.95;;;;;;;;;;5082456;28;20413;-61
2023/09/05 14:07:57;;;;;;;6.55;3.65;;;;;;;;;;5095951;28;20109;-61
2023/09/05 14:10:23;;;;;;;3.55;3.13;;;;;;;;;;5084497;28;20066;-61
2023/09/05 14:12:49;;;;;;;5.35;2.97;;;;;;;;;;5091950;28;20107;-61
2023/09/05 14:15:15;;;;;;;4.18;3.25;;;;;;;;;;5095789;28;20134;-61
2023/09/05 14:17:42;;;;;;;3.03;2.80;;;;;;;;;;5099260;28;20055;-61
2023/09/05 14:20:09;;;;;;;7.68;4.82;;;;;;;;;;5106231;28;20012;-61
2023/09/05 14:22:35;;;;;;;5.68;3.40;;;;;;;;;;5104407;27;20073;-61
2023/09/05 14:25:01;;;;;;;3.30;3.00;;;;;;;;;;5097438;28;20023;-60
2023/09/05 14:27:27;;;;;;;5.50;3.55;;;;;;;;;;5111028;28;20466;-61
2023/09/05 14:29:53;;;;;;;4.13;3.03;;;;;;;;;;5095886;28;20119;-60
2023/09/05 14:32:19;;;;;;;8.57;4.10;;;;;;;;;;5101857;28;20011;-60
2023/09/05 14:34:45;;;;;;;4.65;2.90;;;;;;;;;;5103350;28;20024;-60
2023/09/05 14:37:11;;;;;;;4.95;3.10;;;;;;;;;;5095340;28;20381;-60
2023/09/05 14:39:37;;;;;;;5.63;2.92;;;;;;;;;;5095498;28;20107;-60
2023/09/05 14:42:03;;;;;;;3.53;3.20;;;;;;;;;;5108603;28;20423;-60